sensor_id;sensor_type;location;lat;lon;timestamp;pressure;altitude;pressure_sealevel;temperature;humidity
62124;BME280;48110;47.532;19.078;2023-02-18T00:03:07;100614.09;;;13.03;90.94
62124;BME280;48110;47.532;19.078;2023-02-18T00:06:17;100617.13;;;13.00;91.62
62124;BME280;48110;47.532;19.078;2023-02-18T00:09:24;100613.50;;;12.93;93.16
62124;BME280;48110;47.532;19.078;2023-02-18T00:12:32;100619.22;;;13.13;92.13
62124;BME280;48110;47.532;19.078;2023-02-18T00:15:38;100601.25;;;13.15;92.28
62124;BME280;48110;47.532;19.078;2023-02-18T00:18:47;100605.03;;;13.20;92.16
62124;BME280;48110;47.532;19.078;2023-02-18T00:21:55;100608.22;;;13.16;92.78
62124;BME280;48110;47.532;19.078;2023-02-18T00:25:03;100603.53;;;13.18;92.40
62124;BME280;48110;47.532;19.078;2023-02-18T00:28:10;100604.94;;;13.28;91.56
62124;BME280;48110;47.532;19.078;2023-02-18T00:31:19;100591.34;;;13.23;91.91
62124;BME280;48110;47.532;19.078;2023-02-18T00:34:26;100590.72;;;13.21;92.33
62124;BME280;48110;47.532;19.078;2023-02-18T00:37:33;100596.19;;;13.20;92.47
62124;BME280;48110;47.532;19.078;2023-02-18T00:40:40;100599.03;;;13.18;92.57
62124;BME280;48110;47.532;19.078;2023-02-18T00:43:51;100590.88;;;13.20;92.34
62124;BME280;48110;47.532;19.078;2023-02-18T00:46:58;100571.09;;;13.14;92.94
62124;BME280;48110;47.532;19.078;2023-02-18T00:50:07;100581.44;;;13.09;93.54
62124;BME280;48110;47.532;19.078;2023-02-18T00:53:16;100584.06;;;13.17;92.98
62124;BME280;48110;47.532;19.078;2023-02-18T00:56:25;100586.97;;;13.30;91.80
62124;BME280;48110;47.532;19.078;2023-02-18T00:59:32;100590.53;;;13.37;91.33
62124;BME280;48110;47.532;19.078;2023-02-18T01:02:41;100569.41;;;13.21;92.65
62124;BME280;48110;47.532;19.078;2023-02-18T01:05:50;100570.47;;;13.27;92.32
62124;BME280;48110;47.532;19.078;2023-02-18T01:09:03;100567.75;;;13.35;91.69
62124;BME280;48110;47.532;19.078;2023-02-18T01:12:11;100572.00;;;13.44;90.74
62124;BME280;48110;47.532;19.078;2023-02-18T01:15:22;100566.94;;;13.34;91.32
62124;BME280;48110;47.532;19.078;2023-02-18T01:18:29;100559.94;;;13.33;91.06
62124;BME280;48110;47.532;19.078;2023-02-18T01:21:38;100563.47;;;13.48;89.53
62124;BME280;48110;47.532;19.078;2023-02-18T01:24:47;100561.72;;;13.56;88.73
62124;BME280;48110;47.532;19.078;2023-02-18T01:28:01;100556.75;;;13.67;87.40
62124;BME280;48110;47.532;19.078;2023-02-18T01:31:09;100561.53;;;13.72;87.05
62124;BME280;48110;47.532;19.078;2023-02-18T01:34:17;100554.66;;;13.77;86.14
62124;BME280;48110;47.532;19.078;2023-02-18T01:37:26;100568.72;;;13.71;86.83
62124;BME280;48110;47.532;19.078;2023-02-18T01:40:34;100545.37;;;13.59;87.46
62124;BME280;48110;47.532;19.078;2023-02-18T01:43:42;100556.75;;;13.67;86.89
62124;BME280;48110;47.532;19.078;2023-02-18T01:46:50;100554.53;;;13.71;86.67
62124;BME280;48110;47.532;19.078;2023-02-18T01:49:57;100556.22;;;13.72;86.30
62124;BME280;48110;47.532;19.078;2023-02-18T01:53:06;100562.66;;;13.77;86.00
62124;BME280;48110;47.532;19.078;2023-02-18T01:56:15;100549.69;;;13.74;86.12
62124;BME280;48110;47.532;19.078;2023-02-18T01:59:23;100556.59;;;13.83;85.32
62124;BME280;48110;47.532;19.078;2023-02-18T02:02:31;100547.19;;;13.87;84.65
62124;BME280;48110;47.532;19.078;2023-02-18T02:05:42;100555.00;;;14.04;83.17
62124;BME280;48110;47.532;19.078;2023-02-18T02:08:53;100537.63;;;13.93;83.79
62124;BME280;48110;47.532;19.078;2023-02-18T02:18:37;100529.38;;;13.88;83.64
62124;BME280;48110;47.532;19.078;2023-02-18T02:21:55;100557.41;;;13.99;83.71
62124;BME280;48110;47.532;19.078;2023-02-18T02:25:22;100529.44;;;13.94;82.74
62124;BME280;48110;47.532;19.078;2023-02-18T02:35:04;100551.16;;;13.91;82.50
62124;BME280;48110;47.532;19.078;2023-02-18T02:38:17;100541.13;;;13.93;82.12
62124;BME280;48110;47.532;19.078;2023-02-18T02:44:42;100543.03;;;14.00;81.23
62124;BME280;48110;47.532;19.078;2023-02-18T02:51:23;100553.91;;;13.83;82.51
62124;BME280;48110;47.532;19.078;2023-02-18T02:54:32;100551.41;;;13.97;81.19
62124;BME280;48110;47.532;19.078;2023-02-18T02:57:42;100544.97;;;14.06;80.66
62124;BME280;48110;47.532;19.078;2023-02-18T03:11:02;100564.88;;;13.88;81.48
62124;BME280;48110;47.532;19.078;2023-02-18T03:14:12;100545.25;;;13.81;81.99
62124;BME280;48110;47.532;19.078;2023-02-18T03:17:29;100553.91;;;13.83;82.18
62124;BME280;48110;47.532;19.078;2023-02-18T03:20:45;100566.25;;;13.84;82.14
62124;BME280;48110;47.532;19.078;2023-02-18T03:24:07;100577.91;;;13.83;81.99
62124;BME280;48110;47.532;19.078;2023-02-18T03:27:19;100563.38;;;13.86;81.94
62124;BME280;48110;47.532;19.078;2023-02-18T03:30:28;100567.16;;;13.77;82.07
62124;BME280;48110;47.532;19.078;2023-02-18T03:33:59;100578.75;;;13.99;80.85
62124;BME280;48110;47.532;19.078;2023-02-18T03:37:05;100587.66;;;13.91;80.86
62124;BME280;48110;47.532;19.078;2023-02-18T03:40:16;100567.72;;;13.72;82.42
62124;BME280;48110;47.532;19.078;2023-02-18T03:43:23;100559.97;;;13.77;81.99
62124;BME280;48110;47.532;19.078;2023-02-18T03:46:28;100576.16;;;13.76;81.88
62124;BME280;48110;47.532;19.078;2023-02-18T03:49:39;100571.31;;;13.79;81.73
62124;BME280;48110;47.532;19.078;2023-02-18T03:52:47;100579.03;;;13.74;82.14
62124;BME280;48110;47.532;19.078;2023-02-18T03:55:56;100587.47;;;13.78;81.89
62124;BME280;48110;47.532;19.078;2023-02-18T03:59:03;100575.69;;;13.72;82.59
62124;BME280;48110;47.532;19.078;2023-02-18T04:02:15;100561.00;;;13.76;82.05
62124;BME280;48110;47.532;19.078;2023-02-18T04:05:24;100554.09;;;13.82;81.68
62124;BME280;48110;47.532;19.078;2023-02-18T04:08:31;100570.47;;;13.93;81.02
62124;BME280;48110;47.532;19.078;2023-02-18T04:11:42;100570.53;;;13.85;81.36
62124;BME280;48110;47.532;19.078;2023-02-18T04:14:50;100567.72;;;13.87;81.44
62124;BME280;48110;47.532;19.078;2023-02-18T04:17:58;100577.25;;;13.81;81.90
62124;BME280;48110;47.532;19.078;2023-02-18T04:21:04;100564.94;;;13.80;82.08
62124;BME280;48110;47.532;19.078;2023-02-18T04:24:12;100565.59;;;13.82;82.49
62124;BME280;48110;47.532;19.078;2023-02-18T04:27:21;100566.31;;;13.76;82.97
62124;BME280;48110;47.532;19.078;2023-02-18T04:30:28;100580.66;;;13.75;82.95
62124;BME280;48110;47.532;19.078;2023-02-18T04:33:34;100570.53;;;13.71;83.42
62124;BME280;48110;47.532;19.078;2023-02-18T04:36:42;100572.03;;;13.59;84.40
62124;BME280;48110;47.532;19.078;2023-02-18T04:39:55;100565.03;;;13.58;84.61
62124;BME280;48110;47.532;19.078;2023-02-18T04:43:07;100583.66;;;13.43;86.17
62124;BME280;48110;47.532;19.078;2023-02-18T04:46:14;100571.97;;;13.29;87.38
62124;BME280;48110;47.532;19.078;2023-02-18T04:49:22;100599.06;;;13.33;87.28
62124;BME280;48110;47.532;19.078;2023-02-18T04:52:30;100603.97;;;13.44;85.77
62124;BME280;48110;47.532;19.078;2023-02-18T04:55:38;100592.31;;;13.45;85.66
62124;BME280;48110;47.532;19.078;2023-02-18T04:58:46;100608.66;;;13.42;85.67
62124;BME280;48110;47.532;19.078;2023-02-18T05:01:55;100619.75;;;13.31;87.30
62124;BME280;48110;47.532;19.078;2023-02-18T05:05:04;100621.09;;;13.27;88.59
62124;BME280;48110;47.532;19.078;2023-02-18T05:08:15;100618.22;;;13.14;90.02
62124;BME280;48110;47.532;19.078;2023-02-18T05:11:24;100639.59;;;12.97;94.74
62124;BME280;48110;47.532;19.078;2023-02-18T05:14:31;100644.75;;;12.76;98.77
62124;BME280;48110;47.532;19.078;2023-02-18T05:17:39;100652.19;;;12.50;100.00
62124;BME280;48110;47.532;19.078;2023-02-18T05:20:49;100640.91;;;12.48;100.00
62124;BME280;48110;47.532;19.078;2023-02-18T05:23:58;100630.06;;;12.49;100.00
62124;BME280;48110;47.532;19.078;2023-02-18T05:27:08;100653.72;;;12.44;100.00
62124;BME280;48110;47.532;19.078;2023-02-18T05:30:16;100649.94;;;12.39;100.00
62124;BME280;48110;47.532;19.078;2023-02-18T05:33:25;100659.12;;;12.28;100.00
62124;BME280;48110;47.532;19.078;2023-02-18T05:36:32;100660.16;;;12.19;100.00
62124;BME280;48110;47.532;19.078;2023-02-18T05:39:40;100666.31;;;12.11;100.00
62124;BME280;48110;47.532;19.078;2023-02-18T05:42:51;100672.62;;;12.18;100.00
62124;BME280;48110;47.532;19.078;2023-02-18T05:45:59;100673.97;;;12.14;100.00
62124;BME280;48110;47.532;19.078;2023-02-18T05:49:06;100677.94;;;12.10;100.00
62124;BME280;48110;47.532;19.078;2023-02-18T05:52:12;100680.28;;;12.13;100.00
62124;BME280;48110;47.532;19.078;2023-02-18T05:55:21;100696.72;;;12.17;100.00
62124;BME280;48110;47.532;19.078;2023-02-18T05:58:28;100681.13;;;12.14;100.00
62124;BME280;48110;47.532;19.078;2023-02-18T06:01:38;100705.88;;;12.14;100.00
62124;BME280;48110;47.532;19.078;2023-02-18T06:04:48;100700.41;;;12.08;100.00
62124;BME280;48110;47.532;19.078;2023-02-18T06:07:58;100699.56;;;12.07;100.00
62124;BME280;48110;47.532;19.078;2023-02-18T06:11:07;100708.72;;;12.05;100.00
62124;BME280;48110;47.532;19.078;2023-02-18T06:14:17;100705.25;;;12.04;100.00
62124;BME280;48110;47.532;19.078;2023-02-18T06:17:24;100722.34;;;12.02;100.00
62124;BME280;48110;47.532;19.078;2023-02-18T06:20:31;100707.72;;;11.98;100.00
62124;BME280;48110;47.532;19.078;2023-02-18T06:23:44;100721.34;;;12.03;100.00
62124;BME280;48110;47.532;19.078;2023-02-18T06:26:52;100723.34;;;12.01;100.00
62124;BME280;48110;47.532;19.078;2023-02-18T06:30:00;100713.53;;;12.01;100.00
62124;BME280;48110;47.532;19.078;2023-02-18T06:33:10;100721.84;;;11.98;100.00
62124;BME280;48110;47.532;19.078;2023-02-18T06:36:21;100721.34;;;12.03;100.00
62124;BME280;48110;47.532;19.078;2023-02-18T06:39:29;100719.34;;;11.97;100.00
62124;BME280;48110;47.532;19.078;2023-02-18T06:42:38;100735.66;;;11.94;100.00
62124;BME280;48110;47.532;19.078;2023-02-18T06:45:49;100732.84;;;11.95;100.00
62124;BME280;48110;47.532;19.078;2023-02-18T06:48:57;100736.16;;;11.97;100.00
62124;BME280;48110;47.532;19.078;2023-02-18T06:52:05;100720.69;;;12.01;100.00
62124;BME280;48110;47.532;19.078;2023-02-18T06:55:16;100716.84;;;12.11;100.00
62124;BME280;48110;47.532;19.078;2023-02-18T06:58:22;100718.66;;;12.11;100.00
62124;BME280;48110;47.532;19.078;2023-02-18T07:01:31;100722.66;;;12.23;100.00
62124;BME280;48110;47.532;19.078;2023-02-18T07:04:38;100714.97;;;12.20;100.00
62124;BME280;48110;47.532;19.078;2023-02-18T07:07:49;100721.31;;;12.11;100.00
62124;BME280;48110;47.532;19.078;2023-02-18T07:10:57;100733.62;;;12.12;100.00
62124;BME280;48110;47.532;19.078;2023-02-18T07:14:05;100733.31;;;12.15;100.00
62124;BME280;48110;47.532;19.078;2023-02-18T07:17:12;100724.16;;;12.17;100.00
62124;BME280;48110;47.532;19.078;2023-02-18T07:20:22;100728.97;;;12.22;100.00
62124;BME280;48110;47.532;19.078;2023-02-18T07:23:29;100735.78;;;12.16;100.00
62124;BME280;48110;47.532;19.078;2023-02-18T07:26:39;100741.75;;;12.27;100.00
62124;BME280;48110;47.532;19.078;2023-02-18T07:29:47;100740.25;;;12.32;100.00
62124;BME280;48110;47.532;19.078;2023-02-18T07:32:56;100745.87;;;12.37;100.00
62124;BME280;48110;47.532;19.078;2023-02-18T07:36:07;100732.06;;;12.42;100.00
62124;BME280;48110;47.532;19.078;2023-02-18T07:39:13;100743.34;;;12.52;100.00
62124;BME280;48110;47.532;19.078;2023-02-18T07:42:22;100739.28;;;12.72;100.00
62124;BME280;48110;47.532;19.078;2023-02-18T07:45:27;100736.44;;;12.74;100.00
62124;BME280;48110;47.532;19.078;2023-02-18T07:48:33;100737.41;;;12.81;100.00
62124;BME280;48110;47.532;19.078;2023-02-18T07:51:46;100742.31;;;13.00;100.00
62124;BME280;48110;47.532;19.078;2023-02-18T07:54:52;100732.19;;;12.95;100.00
62124;BME280;48110;47.532;19.078;2023-02-18T07:58:02;100734.69;;;12.97;100.00
62124;BME280;48110;47.532;19.078;2023-02-18T08:01:13;100729.47;;;13.12;100.00
62124;BME280;48110;47.532;19.078;2023-02-18T08:04:26;100732.78;;;13.14;100.00
62124;BME280;48110;47.532;19.078;2023-02-18T08:07:32;100726.44;;;13.15;100.00
62124;BME280;48110;47.532;19.078;2023-02-18T08:10:42;100729.28;;;13.13;100.00
62124;BME280;48110;47.532;19.078;2023-02-18T08:13:46;100726.47;;;13.06;100.00
62124;BME280;48110;47.532;19.078;2023-02-18T08:16:53;100725.78;;;13.13;100.00
62124;BME280;48110;47.532;19.078;2023-02-18T08:20:01;100734.88;;;13.26;100.00
62124;BME280;48110;47.532;19.078;2023-02-18T08:23:09;100747.53;;;13.47;100.00
62124;BME280;48110;47.532;19.078;2023-02-18T08:26:17;100733.06;;;13.41;100.00
62124;BME280;48110;47.532;19.078;2023-02-18T08:29:25;100737.81;;;13.31;100.00
62124;BME280;48110;47.532;19.078;2023-02-18T08:32:29;100736.62;;;13.34;100.00
62124;BME280;48110;47.532;19.078;2023-02-18T08:35:36;100742.88;;;13.49;100.00
62124;BME280;48110;47.532;19.078;2023-02-18T08:38:41;100733.44;;;13.61;99.44
62124;BME280;48110;47.532;19.078;2023-02-18T08:41:47;100746.28;;;13.80;96.84
62124;BME280;48110;47.532;19.078;2023-02-18T08:44:52;100747.94;;;13.81;96.59
62124;BME280;48110;47.532;19.078;2023-02-18T08:47:59;100736.75;;;13.63;99.31
62124;BME280;48110;47.532;19.078;2023-02-18T08:51:25;100728.34;;;13.52;100.00
62124;BME280;48110;47.532;19.078;2023-02-18T08:54:35;100739.81;;;13.75;97.84
62124;BME280;48110;47.532;19.078;2023-02-18T08:57:42;100744.25;;;13.82;97.59
62124;BME280;48110;47.532;19.078;2023-02-18T09:00:52;100748.94;;;13.80;96.63
62124;BME280;48110;47.532;19.078;2023-02-18T09:03:56;100759.94;;;14.00;95.95
62124;BME280;48110;47.532;19.078;2023-02-18T09:07:02;100748.91;;;14.03;94.10
62124;BME280;48110;47.532;19.078;2023-02-18T09:10:13;100734.56;;;14.04;93.44
62124;BME280;48110;47.532;19.078;2023-02-18T09:13:18;100751.75;;;14.02;93.41
62124;BME280;48110;47.532;19.078;2023-02-18T09:16:24;100743.22;;;14.06;94.34
62124;BME280;48110;47.532;19.078;2023-02-18T09:19:31;100727.22;;;14.21;91.48
62124;BME280;48110;47.532;19.078;2023-02-18T09:22:38;100730.94;;;14.64;88.22
62124;BME280;48110;47.532;19.078;2023-02-18T09:25:49;100727.34;;;15.07;85.03
62124;BME280;48110;47.532;19.078;2023-02-18T09:28:56;100726.28;;;14.87;84.01
62124;BME280;48110;47.532;19.078;2023-02-18T09:32:02;100715.75;;;14.50;86.54
62124;BME280;48110;47.532;19.078;2023-02-18T09:35:11;100721.72;;;14.22;89.14
62124;BME280;48110;47.532;19.078;2023-02-18T09:38:20;100717.28;;;14.15;90.84
62124;BME280;48110;47.532;19.078;2023-02-18T09:44:56;100713.44;;;13.80;94.49
62124;BME280;48110;47.532;19.078;2023-02-18T09:48:05;100714.47;;;13.79;94.30
62124;BME280;48110;47.532;19.078;2023-02-18T09:51:12;100712.25;;;13.82;94.93
62124;BME280;48110;47.532;19.078;2023-02-18T09:54:20;100718.44;;;13.83;95.03
62124;BME280;48110;47.532;19.078;2023-02-18T10:00:42;100718.09;;;14.15;92.19
62124;BME280;48110;47.532;19.078;2023-02-18T10:03:48;100714.47;;;14.46;90.51
62124;BME280;48110;47.532;19.078;2023-02-18T10:06:53;100718.44;;;14.50;90.36
62124;BME280;48110;47.532;19.078;2023-02-18T10:10:02;100719.97;;;14.73;88.21
62124;BME280;48110;47.532;19.078;2023-02-18T10:13:13;100720.91;;;14.51;88.73
62124;BME280;48110;47.532;19.078;2023-02-18T10:16:21;100725.78;;;14.62;88.86
62124;BME280;48110;47.532;19.078;2023-02-18T10:19:32;100720.34;;;14.70;86.54
62124;BME280;48110;47.532;19.078;2023-02-18T10:22:39;100712.94;;;14.87;85.03
62124;BME280;48110;47.532;19.078;2023-02-18T10:25:45;100723.50;;;15.10;84.03
62124;BME280;48110;47.532;19.078;2023-02-18T10:28:52;100708.28;;;14.74;83.99
62124;BME280;48110;47.532;19.078;2023-02-18T10:32:03;100714.53;;;14.23;86.67
62124;BME280;48110;47.532;19.078;2023-02-18T10:38:32;100720.22;;;14.20;84.30
62124;BME280;48110;47.532;19.078;2023-02-18T10:41:45;100715.84;;;14.42;83.26
62124;BME280;48110;47.532;19.078;2023-02-18T10:48:20;100705.22;;;15.13;79.25
62124;BME280;48110;47.532;19.078;2023-02-18T10:51:33;100708.47;;;15.30;79.94
62124;BME280;48110;47.532;19.078;2023-02-18T10:58:03;100703.28;;;15.64;79.13
62124;BME280;48110;47.532;19.078;2023-02-18T11:01:13;100692.47;;;14.94;85.08
62124;BME280;48110;47.532;19.078;2023-02-18T11:04:19;100692.94;;;14.62;89.71
62124;BME280;48110;47.532;19.078;2023-02-18T11:07:30;100700.56;;;14.65;89.66
62124;BME280;48110;47.532;19.078;2023-02-18T11:10:39;100704.63;;;14.61;90.50
62124;BME280;48110;47.532;19.078;2023-02-18T11:13:54;100699.34;;;14.23;93.04
62124;BME280;48110;47.532;19.078;2023-02-18T11:17:06;100687.34;;;13.90;96.68
62124;BME280;48110;47.532;19.078;2023-02-18T11:23:27;100669.53;;;14.20;94.25
62124;BME280;48110;47.532;19.078;2023-02-18T11:26:35;100675.50;;;14.66;90.76
62124;BME280;48110;47.532;19.078;2023-02-18T11:29:43;100664.03;;;14.87;87.97
62124;BME280;48110;47.532;19.078;2023-02-18T11:32:50;100657.91;;;14.71;89.53
62124;BME280;48110;47.532;19.078;2023-02-18T11:36:02;100648.53;;;14.97;88.78
62124;BME280;48110;47.532;19.078;2023-02-18T11:42:24;100633.72;;;14.58;91.97
62124;BME280;48110;47.532;19.078;2023-02-18T11:45:30;100632.28;;;14.77;91.08
62124;BME280;48110;47.532;19.078;2023-02-18T11:48:36;100632.28;;;14.77;91.81
62124;BME280;48110;47.532;19.078;2023-02-18T11:51:44;100629.31;;;14.87;90.95
62124;BME280;48110;47.532;19.078;2023-02-18T11:55:03;100623.97;;;15.29;88.71
62124;BME280;48110;47.532;19.078;2023-02-18T11:58:09;100616.94;;;16.05;84.44
62124;BME280;48110;47.532;19.078;2023-02-18T12:01:24;100606.25;;;19.37;65.55
62124;BME280;48110;47.532;19.078;2023-02-18T12:04:39;100602.41;;;20.97;57.77
62124;BME280;48110;47.532;19.078;2023-02-18T12:07:55;100594.06;;;23.90;49.84
62124;BME280;48110;47.532;19.078;2023-02-18T12:11:14;100589.37;;;22.17;50.67
62124;BME280;48110;47.532;19.078;2023-02-18T12:14:26;100569.47;;;20.95;54.67
62124;BME280;48110;47.532;19.078;2023-02-18T12:25:03;100550.38;;;18.14;64.12
62124;BME280;48110;47.532;19.078;2023-02-18T12:28:16;100545.34;;;17.33;67.88
62124;BME280;48110;47.532;19.078;2023-02-18T12:31:39;100551.12;;;16.91;69.45
62124;BME280;48110;47.532;19.078;2023-02-18T12:38:05;100524.94;;;17.32;68.11
62124;BME280;48110;47.532;19.078;2023-02-18T12:57:51;100517.09;;;16.65;64.35
62124;BME280;48110;47.532;19.078;2023-02-18T13:01:06;100503.50;;;17.06;63.01
62124;BME280;48110;47.532;19.078;2023-02-18T13:04:34;100506.19;;;17.06;62.18
62124;BME280;48110;47.532;19.078;2023-02-18T13:14:12;100494.03;;;19.26;54.52
62124;BME280;48110;47.532;19.078;2023-02-18T13:17:21;100484.53;;;18.74;55.41
62124;BME280;48110;47.532;19.078;2023-02-18T13:20:42;100477.87;;;18.14;56.90
62124;BME280;48110;47.532;19.078;2023-02-18T13:24:01;100480.87;;;17.86;57.84
62124;BME280;48110;47.532;19.078;2023-02-18T13:30:42;100472.56;;;19.38;53.18
62124;BME280;48110;47.532;19.078;2023-02-18T13:40:13;100464.34;;;20.77;49.43
62124;BME280;48110;47.532;19.078;2023-02-18T13:46:26;100459.00;;;21.35;47.42
62124;BME280;48110;47.532;19.078;2023-02-18T13:49:33;100451.66;;;19.76;51.28
62124;BME280;48110;47.532;19.078;2023-02-18T13:52:41;100440.09;;;20.06;50.07
62124;BME280;48110;47.532;19.078;2023-02-18T13:56:09;100442.25;;;20.15;49.89
62124;BME280;48110;47.532;19.078;2023-02-18T13:59:18;100431.84;;;19.34;51.92
62124;BME280;48110;47.532;19.078;2023-02-18T14:02:31;100441.06;;;18.52;54.57
62124;BME280;48110;47.532;19.078;2023-02-18T14:05:44;100420.75;;;17.43;57.20
62124;BME280;48110;47.532;19.078;2023-02-18T14:09:01;100405.97;;;17.01;59.47
62124;BME280;48110;47.532;19.078;2023-02-18T14:12:17;100413.00;;;16.75;61.30
62124;BME280;48110;47.532;19.078;2023-02-18T14:21:47;100392.38;;;16.30;67.65
62124;BME280;48110;47.532;19.078;2023-02-18T14:35:04;100365.84;;;16.61;67.21
62124;BME280;48110;47.532;19.078;2023-02-18T14:41:44;100371.59;;;16.78;65.47
62124;BME280;48110;47.532;19.078;2023-02-18T14:45:00;100380.50;;;16.65;66.33
62124;BME280;48110;47.532;19.078;2023-02-18T14:51:21;100356.75;;;16.49;67.19
62124;BME280;48110;47.532;19.078;2023-02-18T14:54:28;100355.09;;;16.15;68.78
62124;BME280;48110;47.532;19.078;2023-02-18T14:57:54;100343.97;;;16.05;69.84
62124;BME280;48110;47.532;19.078;2023-02-18T15:01:12;100339.00;;;15.89;71.02
62124;BME280;48110;47.532;19.078;2023-02-18T15:04:24;100341.25;;;15.85;71.96
62124;BME280;48110;47.532;19.078;2023-02-18T15:07:29;100330.97;;;15.82;72.53
62124;BME280;48110;47.532;19.078;2023-02-18T15:10:46;100337.16;;;15.83;72.54
62124;BME280;48110;47.532;19.078;2023-02-18T15:13:56;100327.44;;;15.69;73.91
62124;BME280;48110;47.532;19.078;2023-02-18T15:17:04;100324.13;;;15.53;75.36
62124;BME280;48110;47.532;19.078;2023-02-18T15:20:14;100318.56;;;15.55;74.78
62124;BME280;48110;47.532;19.078;2023-02-18T15:23:23;100324.87;;;15.47;73.03
62124;BME280;48110;47.532;19.078;2023-02-18T15:26:28;100312.47;;;15.20;70.09
62124;BME280;48110;47.532;19.078;2023-02-18T15:29:37;100326.81;;;14.78;71.48
62124;BME280;48110;47.532;19.078;2023-02-18T15:32:50;100322.66;;;14.69;70.99
62124;BME280;48110;47.532;19.078;2023-02-18T15:35:59;100326.50;;;14.60;69.79
62124;BME280;48110;47.532;19.078;2023-02-18T15:39:09;100334.34;;;14.40;70.57
62124;BME280;48110;47.532;19.078;2023-02-18T15:42:21;100325.28;;;14.13;69.58
62124;BME280;48110;47.532;19.078;2023-02-18T15:45:30;100319.69;;;13.87;70.73
62124;BME280;48110;47.532;19.078;2023-02-18T15:48:46;100317.88;;;13.52;71.77
62124;BME280;48110;47.532;19.078;2023-02-18T15:51:57;100308.50;;;13.20;73.58
62124;BME280;48110;47.532;19.078;2023-02-18T15:55:10;100303.56;;;12.87;76.20
62124;BME280;48110;47.532;19.078;2023-02-18T15:58:28;100306.38;;;12.71;77.77
62124;BME280;48110;47.532;19.078;2023-02-18T16:01:37;100302.22;;;12.54;78.61
62124;BME280;48110;47.532;19.078;2023-02-18T16:04:50;100317.00;;;12.42;79.49
62124;BME280;48110;47.532;19.078;2023-02-18T16:07:59;100314.31;;;12.27;81.09
62124;BME280;48110;47.532;19.078;2023-02-18T16:11:08;100312.06;;;12.16;81.66
62124;BME280;48110;47.532;19.078;2023-02-18T16:17:38;100305.13;;;11.92;83.42
62124;BME280;48110;47.532;19.078;2023-02-18T16:20:51;100304.44;;;11.75;85.00
62124;BME280;48110;47.532;19.078;2023-02-18T16:24:01;100304.94;;;11.71;85.56
62124;BME280;48110;47.532;19.078;2023-02-18T16:27:14;100308.63;;;11.62;86.24
62124;BME280;48110;47.532;19.078;2023-02-18T16:30:26;100309.66;;;11.61;86.65
62124;BME280;48110;47.532;19.078;2023-02-18T16:33:34;100297.91;;;11.55;87.16
62124;BME280;48110;47.532;19.078;2023-02-18T16:36:46;100298.22;;;11.29;89.48
62124;BME280;48110;47.532;19.078;2023-02-18T16:43:22;100286.03;;;11.04;90.79
62124;BME280;48110;47.532;19.078;2023-02-18T16:46:28;100284.63;;;10.94;91.29
62124;BME280;48110;47.532;19.078;2023-02-18T16:49:37;100283.75;;;11.01;91.32
62124;BME280;48110;47.532;19.078;2023-02-18T16:52:47;100288.06;;;10.94;92.61
62124;BME280;48110;47.532;19.078;2023-02-18T16:55:59;100281.81;;;10.87;92.81
62124;BME280;48110;47.532;19.078;2023-02-18T16:59:05;100292.78;;;10.76;92.92
62124;BME280;48110;47.532;19.078;2023-02-18T17:02:15;100298.91;;;10.84;92.68
62124;BME280;48110;47.532;19.078;2023-02-18T17:05:23;100297.06;;;10.85;92.53
62124;BME280;48110;47.532;19.078;2023-02-18T17:08:31;100300.41;;;10.87;92.16
62124;BME280;48110;47.532;19.078;2023-02-18T17:11:37;100301.94;;;10.73;95.01
62124;BME280;48110;47.532;19.078;2023-02-18T17:14:44;100304.94;;;10.62;94.70
62124;BME280;48110;47.532;19.078;2023-02-18T17:17:53;100312.44;;;10.59;95.02
62124;BME280;48110;47.532;19.078;2023-02-18T17:21:02;100303.12;;;10.63;94.29
62124;BME280;48110;47.532;19.078;2023-02-18T17:24:11;100306.78;;;10.62;94.33
62124;BME280;48110;47.532;19.078;2023-02-18T17:27:20;100316.25;;;10.48;95.71
62124;BME280;48110;47.532;19.078;2023-02-18T17:30:28;100309.59;;;10.52;95.94
62124;BME280;48110;47.532;19.078;2023-02-18T17:33:37;100299.53;;;10.39;97.11
62124;BME280;48110;47.532;19.078;2023-02-18T17:36:46;100316.22;;;10.56;95.93
62124;BME280;48110;47.532;19.078;2023-02-18T17:39:56;100301.53;;;10.45;97.11
62124;BME280;48110;47.532;19.078;2023-02-18T17:43:04;100305.00;;;10.38;98.00
62124;BME280;48110;47.532;19.078;2023-02-18T17:46:12;100300.00;;;10.59;96.12
62124;BME280;48110;47.532;19.078;2023-02-18T17:49:19;100297.16;;;10.61;95.49
62124;BME280;48110;47.532;19.078;2023-02-18T17:52:29;100300.69;;;10.45;96.82
62124;BME280;48110;47.532;19.078;2023-02-18T17:55:38;100300.03;;;10.27;98.33
62124;BME280;48110;47.532;19.078;2023-02-18T17:58:49;100289.78;;;10.24;98.85
62124;BME280;48110;47.532;19.078;2023-02-18T18:01:57;100278.66;;;10.12;100.00
62124;BME280;48110;47.532;19.078;2023-02-18T18:05:12;100280.81;;;10.09;100.00
62124;BME280;48110;47.532;19.078;2023-02-18T18:08:19;100290.44;;;10.26;100.00
62124;BME280;48110;47.532;19.078;2023-02-18T18:11:27;100287.44;;;10.37;99.59
62124;BME280;48110;47.532;19.078;2023-02-18T18:14:33;100291.91;;;10.36;99.46
62124;BME280;48110;47.532;19.078;2023-02-18T18:17:44;100299.53;;;10.31;100.00
62124;BME280;48110;47.532;19.078;2023-02-18T18:20:53;100302.69;;;10.19;100.00
62124;BME280;48110;47.532;19.078;2023-02-18T18:24:04;100310.28;;;10.14;100.00
62124;BME280;48110;47.532;19.078;2023-02-18T18:27:12;100298.53;;;10.08;100.00